createdAt,value
2023-03-23T15:59:01.188Z,15.48
2023-03-23T16:04:07.500Z,15.39
2023-03-23T16:09:15.343Z,15.30
2023-03-23T16:14:16.875Z,15.22
2023-03-23T16:19:20.270Z,15.09
2023-03-23T16:24:21.791Z,15.12
2023-03-23T16:29:43.321Z,15.04
2023-03-23T16:34:44.625Z,15.08
2023-03-23T16:39:46.116Z,14.96
2023-03-23T16:44:48.816Z,15.16
2023-03-23T16:49:51.445Z,15.00
2023-03-23T16:54:52.871Z,14.96
2023-03-23T16:59:54.330Z,14.88
2023-03-23T17:04:56.609Z,14.94
2023-03-23T17:09:58.172Z,14.90
2023-03-23T17:14:59.639Z,14.68
2023-03-23T17:20:01.496Z,14.64
2023-03-23T17:25:03.875Z,14.49
2023-03-23T17:30:07.404Z,14.45
2023-03-23T17:35:09.053Z,14.37
2023-03-23T17:40:11.152Z,14.21
2023-03-23T17:45:12.616Z,13.99
2023-03-23T17:50:14.148Z,13.93
2023-03-23T17:55:16.194Z,13.84
2023-03-23T18:00:18.301Z,13.84
2023-03-23T18:05:19.731Z,13.89
2023-03-23T18:10:21.246Z,13.78
2023-03-23T18:15:22.688Z,13.84
2023-03-23T18:20:31.459Z,13.69
2023-03-23T18:25:33.464Z,13.70
2023-03-23T18:30:35.397Z,13.67
2023-03-23T18:35:36.894Z,13.38
2023-03-23T18:40:43.682Z,13.48
2023-03-23T18:45:56.342Z,13.22
2023-03-23T18:50:59.893Z,13.15
2023-03-23T18:56:10.489Z,13.11
2023-03-23T19:01:14.538Z,13.06
2023-03-23T19:06:24.614Z,12.98
2023-03-23T19:11:27.177Z,13.16
2023-03-23T19:16:30.948Z,13.09
2023-03-23T19:21:32.794Z,12.89
2023-03-23T19:26:38.345Z,12.90
2023-03-23T19:31:40.235Z,12.82
2023-03-23T19:36:41.802Z,12.81
2023-03-23T19:41:45.386Z,12.81
2023-03-23T19:46:48.160Z,12.74
2023-03-23T19:51:49.849Z,12.91
2023-03-23T19:56:51.661Z,12.91
2023-03-23T20:01:54.755Z,12.93
2023-03-23T20:06:57.153Z,12.97
2023-03-23T20:11:58.994Z,13.06
2023-03-23T20:17:00.681Z,13.09
2023-03-23T20:22:02.795Z,13.09
2023-03-23T20:27:04.264Z,13.08
2023-03-23T20:32:07.352Z,13.03
2023-03-23T20:37:15.436Z,12.99
2023-03-23T20:42:16.983Z,12.99
2023-03-23T20:47:18.418Z,12.87
2023-03-23T20:52:19.861Z,12.83
2023-03-23T20:57:22.323Z,12.77
2023-03-23T21:02:25.971Z,12.78
2023-03-23T21:07:27.569Z,12.83
2023-03-23T21:12:29.069Z,12.76
2023-03-23T21:17:30.602Z,12.81
2023-03-23T21:22:32.361Z,12.83
2023-03-23T21:27:35.104Z,12.85
2023-03-23T21:32:37.559Z,12.90
2023-03-23T21:37:39.890Z,12.93
2023-03-23T21:42:42.124Z,12.94
2023-03-23T21:47:43.817Z,12.92
2023-03-23T21:52:45.328Z,12.85
2023-03-23T21:57:47.104Z,12.82
2023-03-23T22:02:49.763Z,12.84
2023-03-23T22:07:51.230Z,12.82
2023-03-23T22:12:55.004Z,12.76
2023-03-23T22:17:56.982Z,12.73
2023-03-23T22:22:58.406Z,12.69
2023-03-23T22:28:00.661Z,12.67
2023-03-23T22:33:02.178Z,12.62
2023-03-23T22:38:03.781Z,12.57
2023-03-23T22:43:05.299Z,12.50
2023-03-23T22:48:08.263Z,12.57
2023-03-23T22:53:09.730Z,12.59
2023-03-23T22:58:11.753Z,12.57
2023-03-23T23:03:13.633Z,12.50
2023-03-23T23:08:17.757Z,12.46
2023-03-23T23:13:19.678Z,12.41
2023-03-23T23:18:21.709Z,12.40
2023-03-23T23:23:24.463Z,12.37
2023-03-23T23:28:26.594Z,12.38
2023-03-23T23:33:28.275Z,12.32
2023-03-23T23:38:29.678Z,12.29
2023-03-23T23:43:31.010Z,12.31
2023-03-23T23:48:32.821Z,12.32
2023-03-23T23:53:34.348Z,12.24
2023-03-23T23:58:35.791Z,12.29
